BAW365 LFLL-EGLL
Flight info
| Callsign | BAW365 |
|---|---|
| Flight time | N/A |
| Altitude | 34000 |
| Route | BUSIL DCT PILUL DCT ALESO |
| Aircraft | A21N/M-SDE2E3FGHIRWXY/LB1 |
Departure
| Time | 2026-05-05 00:11 |
|---|---|
| Airport | Lyon Saint-Exupéry Airport (LFLL) |
Arrival
| Time | N/A |
|---|---|
| Airport | London Heathrow Airport (EGLL) |
| Time | Latitude | Longitude | Altitude | Speed | Heading |
|---|---|---|---|---|---|
| 2026-05-04 23:43 | 45.71752 | 5.07942 | 802 ft | 0 kts | 263° |
| 2026-05-05 00:01 | 45.71754 | 5.07964 | 802 ft | 4 kts | 266° |
| 2026-05-05 00:02 | 45.71753 | 5.08003 | 802 ft | 4 kts | 277° |
| 2026-05-05 00:02 | 45.71751 | 5.08032 | 802 ft | 4 kts | 281° |
| 2026-05-05 00:02 | 45.71742 | 5.08059 | 802 ft | 4 kts | 306° |
| 2026-05-05 00:02 | 45.71724 | 5.08082 | 803 ft | 4 kts | 346° |
| 2026-05-05 00:03 | 45.71699 | 5.08081 | 803 ft | 3 kts | 14° |
| 2026-05-05 00:03 | 45.71696 | 5.08080 | 803 ft | 1 kts | 15° |
| 2026-05-05 00:05 | 45.71706 | 5.08084 | 803 ft | 3 kts | 15° |
| 2026-05-05 00:05 | 45.71733 | 5.08104 | 803 ft | 6 kts | 38° |
| 2026-05-05 00:05 | 45.71777 | 5.08148 | 803 ft | 9 kts | 30° |
| 2026-05-05 00:06 | 45.71847 | 5.08187 | 803 ft | 12 kts | 15° |
| 2026-05-05 00:06 | 45.71941 | 5.08222 | 802 ft | 15 kts | 14° |
| 2026-05-05 00:06 | 45.72055 | 5.08265 | 802 ft | 18 kts | 18° |
| 2026-05-05 00:06 | 45.72188 | 5.08320 | 804 ft | 21 kts | 1° |
| 2026-05-05 00:07 | 45.72267 | 5.08402 | 804 ft | 0 kts | 69° |
| 2026-05-05 00:07 | 45.72275 | 5.08414 | 805 ft | 5 kts | 40° |
| 2026-05-05 00:07 | 45.72332 | 5.08415 | 804 ft | 11 kts | 357° |
| 2026-05-05 00:07 | 45.72422 | 5.08406 | 802 ft | 14 kts | 351° |
| 2026-05-05 00:08 | 45.72533 | 5.08393 | 801 ft | 18 kts | 355° |
| 2026-05-05 00:08 | 45.72667 | 5.08377 | 797 ft | 21 kts | 355° |
| 2026-05-05 00:08 | 45.72815 | 5.08359 | 796 ft | 22 kts | 355° |
| 2026-05-05 00:08 | 45.72970 | 5.08340 | 794 ft | 23 kts | 354° |
| 2026-05-05 00:09 | 45.73131 | 5.08322 | 791 ft | 24 kts | 354° |
| 2026-05-05 00:09 | 45.73298 | 5.08296 | 788 ft | 25 kts | 354° |
| 2026-05-05 00:09 | 45.73472 | 5.08276 | 785 ft | 25 kts | 356° |
| 2026-05-05 00:09 | 45.73652 | 5.08258 | 784 ft | 27 kts | 9° |
| 2026-05-05 00:10 | 45.73718 | 5.08462 | 783 ft | 28 kts | 102° |
| 2026-05-05 00:10 | 45.73674 | 5.08681 | 782 ft | 16 kts | 131° |
| 2026-05-05 00:10 | 45.73621 | 5.08718 | 784 ft | 0 kts | 173° |
| 2026-05-05 00:10 | 45.73554 | 5.08730 | 786 ft | 36 kts | 174° |
| 2026-05-05 00:11 | 45.73078 | 5.08788 | 795 ft | 99 kts | 175° |
| 2026-05-05 00:11 | 45.72216 | 5.08895 | 808 ft | 146 kts | 174° |
| 2026-05-05 00:11 | 45.71116 | 5.09027 | 1028 ft | 162 kts | 174° |
| 2026-05-05 00:11 | 45.70017 | 5.09165 | 1704 ft | 156 kts | 174° |
| 2026-05-05 00:12 | 45.68921 | 5.09299 | 2218 ft | 163 kts | 176° |
| 2026-05-05 00:12 | 45.67741 | 5.09433 | 2629 ft | 177 kts | 174° |
| 2026-05-05 00:12 | 45.66452 | 5.09698 | 3001 ft | 200 kts | 156° |
| 2026-05-05 00:12 | 45.65355 | 5.11044 | 3382 ft | 223 kts | 118° |
| 2026-05-05 00:13 | 45.65080 | 5.13259 | 4032 ft | 237 kts | 82° |
| 2026-05-05 00:13 | 45.65816 | 5.15382 | 4841 ft | 248 kts | 47° |
| 2026-05-05 00:13 | 45.67321 | 5.16623 | 5635 ft | 257 kts | 15° |
| 2026-05-05 00:13 | 45.69085 | 5.17176 | 6475 ft | 262 kts | 13° |
| 2026-05-05 00:14 | 45.70868 | 5.17831 | 7230 ft | 268 kts | 15° |
| 2026-05-05 00:14 | 45.72779 | 5.17967 | 7683 ft | 287 kts | 346° |
| 2026-05-05 00:14 | 45.74623 | 5.16841 | 8229 ft | 296 kts | 327° |
| 2026-05-05 00:14 | 45.76400 | 5.15304 | 9047 ft | 301 kts | 326° |
| 2026-05-05 00:15 | 45.78211 | 5.13756 | 9896 ft | 305 kts | 327° |
| 2026-05-05 00:15 | 45.80082 | 5.12199 | 10467 ft | 319 kts | 327° |
| 2026-05-05 00:15 | 45.82065 | 5.10578 | 10890 ft | 337 kts | 328° |
| 2026-05-05 00:15 | 45.84131 | 5.08903 | 11551 ft | 345 kts | 328° |
| 2026-05-05 00:16 | 45.86237 | 5.07202 | 12320 ft | 349 kts | 328° |
| 2026-05-05 00:16 | 45.88363 | 5.05491 | 13128 ft | 353 kts | 328° |
| 2026-05-05 00:16 | 45.90517 | 5.03755 | 13890 ft | 357 kts | 328° |
| 2026-05-05 00:16 | 45.91983 | 5.02572 | 14337 ft | 360 kts | 328° |
| 2026-05-05 00:17 | 45.94858 | 5.00251 | 15223 ft | 366 kts | 328° |
| 2026-05-05 00:17 | 45.97126 | 4.98418 | 15897 ft | 370 kts | 328° |
| 2026-05-05 00:17 | 45.99389 | 4.96591 | 16545 ft | 375 kts | 328° |
| 2026-05-05 00:17 | 46.01638 | 4.94772 | 17171 ft | 379 kts | 328° |
| 2026-05-05 00:18 | 46.03951 | 4.92897 | 17784 ft | 383 kts | 328° |
| 2026-05-05 00:18 | 46.06290 | 4.90998 | 18362 ft | 387 kts | 328° |
| 2026-05-05 00:18 | 46.08647 | 4.89085 | 18860 ft | 391 kts | 328° |
| 2026-05-05 00:18 | 46.11026 | 4.87151 | 19363 ft | 395 kts | 328° |
| 2026-05-05 00:19 | 46.13433 | 4.85191 | 19836 ft | 398 kts | 328° |
| 2026-05-05 00:19 | 46.15855 | 4.83208 | 20336 ft | 402 kts | 328° |
| 2026-05-05 00:19 | 46.17501 | 4.81869 | 20656 ft | 404 kts | 328° |
| 2026-05-05 00:19 | 46.20771 | 4.79202 | 21276 ft | 409 kts | 327° |
| 2026-05-05 00:20 | 46.23261 | 4.77165 | 21685 ft | 413 kts | 328° |
| 2026-05-05 00:20 | 46.25776 | 4.75105 | 22064 ft | 416 kts | 328° |
| 2026-05-05 00:20 | 46.28296 | 4.73035 | 22429 ft | 418 kts | 328° |
| 2026-05-05 00:20 | 46.29966 | 4.71621 | 22657 ft | 418 kts | 326° |
| 2026-05-05 00:21 | 46.33288 | 4.68658 | 23086 ft | 420 kts | 325° |
| 2026-05-05 00:21 | 46.34964 | 4.67148 | 23278 ft | 422 kts | 325° |
| 2026-05-05 00:21 | 46.38281 | 4.64154 | 23596 ft | 425 kts | 325° |
| 2026-05-05 00:21 | 46.40795 | 4.61885 | 23788 ft | 426 kts | 325° |
| 2026-05-05 00:22 | 46.43311 | 4.59614 | 23976 ft | 428 kts | 325° |
| 2026-05-05 00:22 | 46.45022 | 4.58070 | 24091 ft | 429 kts | 325° |
| 2026-05-05 00:22 | 46.47558 | 4.55777 | 24239 ft | 430 kts | 325° |
| 2026-05-05 00:22 | 46.50920 | 4.52727 | 24433 ft | 430 kts | 324° |
| 2026-05-05 00:23 | 46.52640 | 4.51169 | 24510 ft | 431 kts | 324° |
| 2026-05-05 00:23 | 46.55180 | 4.48866 | 24608 ft | 431 kts | 324° |
| 2026-05-05 00:23 | 46.58552 | 4.45800 | 24679 ft | 432 kts | 324° |
| 2026-05-05 00:23 | 46.60265 | 4.44242 | 24722 ft | 432 kts | 324° |
| 2026-05-05 00:24 | 46.62813 | 4.41923 | 24769 ft | 431 kts | 324° |
| 2026-05-05 00:24 | 46.65365 | 4.39596 | 24779 ft | 431 kts | 324° |
| 2026-05-05 00:24 | 46.67897 | 4.37282 | 24754 ft | 431 kts | 324° |
| 2026-05-05 00:24 | 46.70440 | 4.34956 | 24719 ft | 431 kts | 324° |
| 2026-05-05 00:25 | 46.72973 | 4.32638 | 24675 ft | 430 kts | 324° |
| 2026-05-05 00:25 | 46.75505 | 4.30318 | 24611 ft | 429 kts | 324° |
| 2026-05-05 00:25 | 46.78002 | 4.28032 | 24643 ft | 425 kts | 324° |
| 2026-05-05 00:25 | 46.80511 | 4.25728 | 24781 ft | 418 kts | 324° |
| 2026-05-05 00:26 | 46.82916 | 4.23519 | 24930 ft | 410 kts | 324° |
| 2026-05-05 00:26 | 46.85323 | 4.21306 | 24999 ft | 405 kts | 324° |
| 2026-05-05 00:26 | 46.87695 | 4.19120 | 25021 ft | 401 kts | 324° |
| 2026-05-05 00:26 | 46.89892 | 4.17092 | 25038 ft | 397 kts | 324° |
| 2026-05-05 00:27 | 46.92281 | 4.14885 | 25037 ft | 394 kts | 324° |
| 2026-05-05 00:27 | 46.94591 | 4.12751 | 25031 ft | 391 kts | 324° |
| 2026-05-05 00:27 | 46.96894 | 4.10619 | 24873 ft | 388 kts | 325° |
| 2026-05-05 00:27 | 46.99151 | 4.08531 | 25037 ft | 383 kts | 324° |
| 2026-05-05 00:28 | 47.01395 | 4.06450 | 25036 ft | 381 kts | 324° |
| 2026-05-05 00:28 | 47.03627 | 4.04378 | 25009 ft | 380 kts | 324° |
| 2026-05-05 00:28 | 47.05844 | 4.02316 | 25001 ft | 377 kts | 324° |
| 2026-05-05 00:28 | 47.08039 | 4.00279 | 24965 ft | 363 kts | 324° |
| 2026-05-05 00:29 | 47.10145 | 3.98322 | 24918 ft | 359 kts | 324° |
| 2026-05-05 00:29 | 47.12264 | 3.96347 | 24893 ft | 358 kts | 324° |
| 2026-05-05 00:29 | 47.14358 | 3.94393 | 24866 ft | 356 kts | 324° |
| 2026-05-05 00:29 | 47.16437 | 3.92447 | 24839 ft | 354 kts | 324° |
| 2026-05-05 00:30 | 47.18522 | 3.90495 | 24704 ft | 357 kts | 324° |
| 2026-05-05 00:30 | 47.20632 | 3.88509 | 24335 ft | 366 kts | 324° |
| 2026-05-05 00:30 | 47.22796 | 3.86461 | 23977 ft | 374 kts | 324° |
| 2026-05-05 00:30 | 47.25011 | 3.84353 | 23598 ft | 382 kts | 324° |
| 2026-05-05 00:31 | 47.27261 | 3.82202 | 23185 ft | 390 kts | 325° |
| 2026-05-05 00:31 | 47.29550 | 3.80014 | 22932 ft | 391 kts | 325° |
| 2026-05-05 00:31 | 47.31845 | 3.77878 | 22699 ft | 393 kts | 326° |
| 2026-05-05 00:31 | 47.34182 | 3.75774 | 22617 ft | 391 kts | 327° |
| 2026-05-05 00:32 | 47.36515 | 3.73741 | 22538 ft | 388 kts | 328° |
| 2026-05-05 00:32 | 47.38830 | 3.71736 | 22465 ft | 385 kts | 328° |
| 2026-05-05 00:32 | 47.41126 | 3.69731 | 22390 ft | 381 kts | 328° |
| 2026-05-05 00:32 | 47.43391 | 3.67721 | 22315 ft | 377 kts | 325° |
| 2026-05-05 00:33 | 47.45524 | 3.65524 | 22250 ft | 373 kts | 322° |
| 2026-05-05 00:33 | 47.47639 | 3.63309 | 22209 ft | 371 kts | 323° |
| 2026-05-05 00:33 | 47.49773 | 3.61168 | 22175 ft | 369 kts | 324° |
| 2026-05-05 00:33 | 47.51915 | 3.59082 | 22153 ft | 367 kts | 325° |
| 2026-05-05 00:34 | 47.54050 | 3.57032 | 22116 ft | 365 kts | 325° |
| 2026-05-05 00:34 | 47.56178 | 3.55003 | 22088 ft | 363 kts | 326° |
| 2026-05-05 00:34 | 47.58301 | 3.52981 | 22063 ft | 362 kts | 326° |
| 2026-05-05 00:34 | 47.60415 | 3.50967 | 22037 ft | 360 kts | 326° |
| 2026-05-05 00:35 | 47.62522 | 3.48959 | 22019 ft | 359 kts | 326° |
| 2026-05-05 00:35 | 47.64612 | 3.46968 | 22000 ft | 357 kts | 326° |
| 2026-05-05 00:35 | 47.66701 | 3.44973 | 21978 ft | 355 kts | 326° |
| 2026-05-05 00:35 | 47.68776 | 3.42990 | 21962 ft | 354 kts | 326° |
| 2026-05-05 00:36 | 47.70840 | 3.41013 | 21947 ft | 352 kts | 325° |
| 2026-05-05 00:36 | 47.72894 | 3.39047 | 21926 ft | 351 kts | 325° |
| 2026-05-05 00:36 | 47.74942 | 3.37083 | 21910 ft | 350 kts | 325° |
| 2026-05-05 00:36 | 47.76986 | 3.35120 | 21896 ft | 348 kts | 326° |
| 2026-05-05 00:37 | 47.79008 | 3.33173 | 21876 ft | 346 kts | 325° |
| 2026-05-05 00:37 | 47.81010 | 3.31242 | 21864 ft | 345 kts | 325° |
| 2026-05-05 00:37 | 47.83019 | 3.29303 | 21843 ft | 343 kts | 325° |
| 2026-05-05 00:37 | 47.85022 | 3.27372 | 21828 ft | 342 kts | 326° |
| 2026-05-05 00:38 | 47.87014 | 3.25452 | 21815 ft | 340 kts | 325° |
| 2026-05-05 00:38 | 47.88997 | 3.23543 | 21799 ft | 339 kts | 326° |
| 2026-05-05 00:38 | 47.90971 | 3.21642 | 21786 ft | 338 kts | 325° |
| 2026-05-05 00:38 | 47.92939 | 3.19739 | 21774 ft | 336 kts | 325° |
| 2026-05-05 00:39 | 47.94901 | 3.17841 | 21756 ft | 335 kts | 325° |
| 2026-05-05 00:39 | 47.96855 | 3.15948 | 21752 ft | 333 kts | 325° |
| 2026-05-05 00:39 | 47.98794 | 3.14068 | 21743 ft | 331 kts | 325° |
| 2026-05-05 00:39 | 48.00720 | 3.12195 | 21681 ft | 333 kts | 325° |
| 2026-05-05 00:40 | 48.02699 | 3.10268 | 21317 ft | 344 kts | 325° |
| 2026-05-05 00:40 | 48.04750 | 3.08279 | 20871 ft | 358 kts | 326° |
| 2026-05-05 00:40 | 48.06874 | 3.06218 | 20404 ft | 371 kts | 326° |
| 2026-05-05 00:40 | 48.09118 | 3.04240 | 19923 ft | 376 kts | 333° |
| 2026-05-05 00:41 | 48.11491 | 3.02583 | 19448 ft | 378 kts | 334° |
| 2026-05-05 00:41 | 48.13902 | 3.00928 | 18983 ft | 382 kts | 334° |
| 2026-05-05 00:41 | 48.16324 | 2.99259 | 18512 ft | 386 kts | 334° |
| 2026-05-05 00:41 | 48.18773 | 2.97565 | 18037 ft | 390 kts | 335° |
| 2026-05-05 00:42 | 48.21252 | 2.95845 | 17509 ft | 398 kts | 334° |
| 2026-05-05 00:42 | 48.23801 | 2.94073 | 16983 ft | 408 kts | 334° |
| 2026-05-05 00:42 | 48.26416 | 2.92353 | 16478 ft | 414 kts | 338° |
| 2026-05-05 00:42 | 48.29074 | 2.90973 | 15965 ft | 386 kts | 342° |
| 2026-05-05 00:43 | 48.31602 | 2.90302 | 15445 ft | 353 kts | 354° |
| 2026-05-05 00:43 | 48.33953 | 2.90066 | 14920 ft | 326 kts | 356° |
| 2026-05-05 00:43 | 48.36180 | 2.89920 | 14342 ft | 317 kts | 357° |
| 2026-05-05 00:43 | 48.38374 | 2.89795 | 13758 ft | 314 kts | 357° |
| 2026-05-05 00:44 | 48.40549 | 2.89680 | 13105 ft | 309 kts | 357° |
| 2026-05-05 00:44 | 48.42678 | 2.89522 | 12450 ft | 304 kts | 353° |
| 2026-05-05 00:44 | 48.44657 | 2.88572 | 11774 ft | 299 kts | 329° |
| 2026-05-05 00:44 | 48.46209 | 2.86549 | 11165 ft | 295 kts | 308° |
| 2026-05-05 00:45 | 48.47394 | 2.84041 | 10558 ft | 292 kts | 303° |
| 2026-05-05 00:45 | 48.48495 | 2.81482 | 10077 ft | 291 kts | 302° |
| 2026-05-05 00:45 | 48.49586 | 2.78907 | 9905 ft | 291 kts | 302° |
| 2026-05-05 00:45 | 48.50674 | 2.76334 | 9871 ft | 291 kts | 302° |
| 2026-05-05 00:46 | 48.51763 | 2.73756 | 9888 ft | 291 kts | 302° |
| 2026-05-05 00:46 | 48.52852 | 2.71177 | 9895 ft | 291 kts | 302° |
| 2026-05-05 00:46 | 48.53939 | 2.68600 | 9901 ft | 291 kts | 302° |
| 2026-05-05 00:46 | 48.55023 | 2.66029 | 9903 ft | 291 kts | 302° |
| 2026-05-05 00:47 | 48.56107 | 2.63457 | 9906 ft | 291 kts | 302° |
| 2026-05-05 00:47 | 48.57196 | 2.60867 | 9907 ft | 290 kts | 302° |
| 2026-05-05 00:47 | 48.58278 | 2.58289 | 9910 ft | 291 kts | 302° |
| 2026-05-05 00:47 | 48.59361 | 2.55701 | 9873 ft | 291 kts | 302° |
| 2026-05-05 00:48 | 48.60440 | 2.53121 | 9568 ft | 290 kts | 302° |
| 2026-05-05 00:48 | 48.61512 | 2.50550 | 9162 ft | 289 kts | 302° |
| 2026-05-05 00:48 | 48.62563 | 2.48020 | 8738 ft | 287 kts | 302° |
| 2026-05-05 00:48 | 48.63638 | 2.45415 | 8297 ft | 286 kts | 302° |
| 2026-05-05 00:49 | 48.64729 | 2.42911 | 7843 ft | 284 kts | 309° |
| 2026-05-05 00:49 | 48.66180 | 2.40909 | 7435 ft | 281 kts | 323° |
| 2026-05-05 00:49 | 48.67226 | 2.39759 | 7162 ft | 280 kts | 325° |
| 2026-05-05 00:49 | 48.69329 | 2.37528 | 6619 ft | 278 kts | 326° |
| 2026-05-05 00:50 | 48.70910 | 2.35853 | 6191 ft | 277 kts | 326° |
| 2026-05-05 00:50 | 48.71980 | 2.34742 | 5907 ft | 275 kts | 327° |
| 2026-05-05 00:50 | 48.74056 | 2.32600 | 5342 ft | 272 kts | 327° |
| 2026-05-05 00:50 | 48.75615 | 2.30984 | 4909 ft | 270 kts | 327° |
| 2026-05-05 00:51 | 48.77160 | 2.29371 | 4470 ft | 268 kts | 327° |
| 2026-05-05 00:51 | 48.78685 | 2.27768 | 3985 ft | 266 kts | 327° |
| 2026-05-05 00:51 | 48.80284 | 2.26391 | 3479 ft | 261 kts | 343° |
| 2026-05-05 00:51 | 48.82030 | 2.25752 | 3044 ft | 258 kts | 352° |
| 2026-05-05 00:52 | 48.83745 | 2.25430 | 2922 ft | 257 kts | 356° |
| 2026-05-05 00:52 | 48.85566 | 2.25184 | 2937 ft | 257 kts | 356° |
| 2026-05-05 00:52 | 48.87376 | 2.24956 | 2964 ft | 257 kts | 358° |
| 2026-05-05 00:52 | 48.89128 | 2.25132 | 2973 ft | 255 kts | 10° |
| 2026-05-05 00:53 | 48.90866 | 2.25583 | 2985 ft | 255 kts | 11° |
| 2026-05-05 00:53 | 48.92615 | 2.26114 | 2982 ft | 255 kts | 19° |
| 2026-05-05 00:53 | 48.94215 | 2.27259 | 2994 ft | 254 kts | 30° |
| 2026-05-05 00:53 | 48.95250 | 2.28172 | 3002 ft | 254 kts | 31° |
| 2026-05-05 00:54 | 48.97860 | 2.32484 | 2930 ft | 240 kts | 72° |
| 2026-05-05 00:54 | 48.98123 | 2.34897 | 2946 ft | 224 kts | 87° |
| 2026-05-05 00:54 | 48.98260 | 2.37223 | 2812 ft | 209 kts | 80° |
| 2026-05-05 00:55 | 48.98313 | 2.37912 | 2767 ft | 197 kts | 85° |
| 2026-05-05 00:55 | 48.98450 | 2.40405 | 2542 ft | 155 kts | 79° |
| 2026-05-05 00:55 | 48.98535 | 2.42379 | 2236 ft | 135 kts | 80° |
| 2026-05-05 00:55 | 48.98605 | 2.43810 | 2035 ft | 134 kts | 82° |
| 2026-05-05 00:56 | 48.98680 | 2.45208 | 1853 ft | 134 kts | 83° |
| 2026-05-05 00:56 | 48.98731 | 2.46159 | 1732 ft | 134 kts | 83° |
| 2026-05-05 00:56 | 48.98832 | 2.48049 | 1486 ft | 133 kts | 84° |
| 2026-05-05 00:56 | 48.98883 | 2.48989 | 1360 ft | 134 kts | 83° |
| 2026-05-05 00:57 | 48.98985 | 2.50892 | 1106 ft | 135 kts | 83° |
| 2026-05-05 00:57 | 48.99036 | 2.51845 | 986 ft | 136 kts | 83° |
| 2026-05-05 00:57 | 48.99146 | 2.53759 | 768 ft | 136 kts | 83° |
| 2026-05-05 00:57 | 48.99176 | 2.54712 | 638 ft | 136 kts | 84° |
| 2026-05-05 00:58 | 48.99253 | 2.56112 | 478 ft | 135 kts | 79° |
| 2026-05-05 00:58 | 48.99332 | 2.57507 | 358 ft | 116 kts | 82° |
| 2026-05-05 00:58 | 48.99415 | 2.58772 | 363 ft | 68 kts | 83° |
| 2026-05-05 00:58 | 48.99481 | 2.59313 | 360 ft | 37 kts | 62° |
| 2026-05-05 00:59 | 48.99543 | 2.59499 | 362 ft | 22 kts | 66° |
| 2026-05-05 00:59 | 48.99624 | 2.59690 | 366 ft | 7 kts | 15° |
| 2026-05-05 00:59 | 48.99659 | 2.59695 | 360 ft | 3 kts | 358° |
| 2026-05-05 00:59 | 48.99710 | 2.59690 | 362 ft | 8 kts | 354° |
| 2026-05-05 01:00 | 48.99753 | 2.59683 | 359 ft | 11 kts | 354° |
| 2026-05-05 01:00 | 48.99875 | 2.59665 | 359 ft | 16 kts | 354° |
| 2026-05-05 01:00 | 48.99957 | 2.59655 | 361 ft | 19 kts | 356° |
| 2026-05-05 01:00 | 49.00078 | 2.59587 | 359 ft | 22 kts | 270° |
| 2026-05-05 01:01 | 49.00066 | 2.59334 | 361 ft | 26 kts | 266° |
| 2026-05-05 01:01 | 49.00052 | 2.59043 | 360 ft | 29 kts | 265° |
| 2026-05-05 01:01 | 49.00032 | 2.58728 | 360 ft | 31 kts | 265° |
| 2026-05-05 01:01 | 49.00017 | 2.58420 | 364 ft | 23 kts | 265° |
| 2026-05-05 01:02 | 49.00004 | 2.58168 | 359 ft | 25 kts | 265° |
| 2026-05-05 01:02 | 48.99990 | 2.57898 | 366 ft | 26 kts | 265° |
| 2026-05-05 01:02 | 48.99976 | 2.57612 | 363 ft | 28 kts | 266° |
| 2026-05-05 01:02 | 48.99958 | 2.57310 | 363 ft | 29 kts | 264° |
| 2026-05-05 01:03 | 48.99943 | 2.56993 | 365 ft | 31 kts | 265° |
| 2026-05-05 01:03 | 48.99925 | 2.56694 | 362 ft | 27 kts | 265° |
| 2026-05-05 01:03 | 48.99910 | 2.56413 | 364 ft | 10 kts | 265° |
| 2026-05-05 01:03 | 48.99906 | 2.56334 | 360 ft | 0 kts | 265° |
| 2026-05-05 01:04 | 48.99906 | 2.56330 | 360 ft | 2 kts | 265° |
| 2026-05-05 01:05 | 48.99904 | 2.56289 | 360 ft | 6 kts | 265° |
| 2026-05-05 01:05 | 48.99900 | 2.56200 | 361 ft | 11 kts | 265° |
| 2026-05-05 01:05 | 48.99893 | 2.56066 | 360 ft | 15 kts | 265° |
| 2026-05-05 01:05 | 48.99897 | 2.55898 | 360 ft | 17 kts | 285° |
| 2026-05-05 01:06 | 48.99936 | 2.55725 | 362 ft | 18 kts | 289° |
| 2026-05-05 01:06 | 48.99945 | 2.55699 | 368 ft | 4 kts | 310° |
| 2026-05-05 01:06 | 49.00011 | 2.55662 | 360 ft | 13 kts | 350° |
| 2026-05-05 01:06 | 49.00091 | 2.55713 | 363 ft | 8 kts | 31° |
| 2026-05-05 01:07 | 49.00127 | 2.55740 | 362 ft | 9 kts | 23° |
| 2026-05-05 01:07 | 49.00177 | 2.55813 | 360 ft | 0 kts | 63° |
| 2026-05-05 01:07 | 49.00182 | 2.55824 | 363 ft | 2 kts | 59° |
| 2026-05-05 01:07 | 49.00186 | 2.55836 | 361 ft | 0 kts | 60° |
| 2026-05-05 01:08 | 49.00187 | 2.55839 | 361 ft | 0 kts | 62° |
| 2026-05-05 01:08 | 49.00187 | 2.55837 | 361 ft | 1 kts | 62° |